Time,TemperatureF,DewpointF,PressureIn,WindDirection,WindDirectionDegrees,WindSpeedMPH,WindSpeedGustMPH,Humidity,HourlyPrecipIn,Conditions,Clouds,dailyrainin,SoftwareType,DateUTC
2013-12-17 00:08:00,41.6,19.0,25.41,West,260,5.0,14.0,41,0.00,,,0.00,weatherlink.com 1.10,2013-12-17 07:08:00,
2013-12-17 00:23:00,41.4,19.0,25.41,WSW,243,8.0,13.0,41,0.00,,,0.00,weatherlink.com 1.10,2013-12-17 07:23:00,
2013-12-17 00:38:00,41.4,19.0,25.41,West,264,6.0,11.0,41,0.00,,,0.00,weatherlink.com 1.10,2013-12-17 07:38:00,
2013-12-17 00:53:00,41.6,19.0,25.41,WSW,252,9.0,12.0,41,0.00,,,0.00,weatherlink.com 1.10,2013-12-17 07:53:00,
2013-12-17 01:08:00,41.8,19.0,25.42,WNW,284,7.0,10.0,40,0.00,,,0.00,weatherlink.com 1.10,2013-12-17 08:08:00,
2013-12-17 01:23:00,41.8,19.0,25.42,West,260,5.0,10.0,40,0.00,,,0.00,weatherlink.com 1.10,2013-12-17 08:23:00,
2013-12-17 01:38:00,40.7,19.0,25.43,NNE,20,3.0,8.0,42,0.00,,,0.00,weatherlink.com 1.10,2013-12-17 08:38:00,
2013-12-17 01:53:00,37.2,18.0,25.43,NE,40,0.0,1.0,47,0.00,,,0.00,weatherlink.com 1.10,2013-12-17 08:53:00,
2013-12-17 02:08:00,36.9,19.0,25.44,NE,40,1.0,1.0,48,0.00,,,0.00,weatherlink.com 1.10,2013-12-17 09:08:00,
2013-12-17 02:23:00,38.4,19.0,25.45,West,276,4.0,7.0,45,0.00,,,0.00,weatherlink.com 1.10,2013-12-17 09:23:00,
2013-12-17 02:38:00,-999.0,-99.9,25.45,North,-999,-999.0,-999.0,-999,0.00,,,0.00,weatherlink.com 1.10,2013-12-17 09:38:00,
2013-12-17 02:53:00,-999.0,-99.9,25.45,North,-999,-999.0,-999.0,-999,0.00,,,0.00,weatherlink.com 1.10,2013-12-17 09:53:00,
2013-12-17 03:09:00,-999.0,-99.9,25.45,North,-999,-999.0,-999.0,-999,0.00,,,0.00,weatherlink.com 1.10,2013-12-17 10:09:00,
2013-12-17 03:24:00,-999.0,-99.9,25.44,North,-999,-999.0,-999.0,-999,0.00,,,0.00,weatherlink.com 1.10,2013-12-17 10:24:00,
2013-12-17 03:39:00,-999.0,-99.9,25.44,North,-999,-999.0,-999.0,-999,0.00,,,0.00,weatherlink.com 1.10,2013-12-17 10:39:00,
2013-12-17 03:54:00,-999.0,-99.9,25.44,North,-999,-999.0,-999.0,-999,0.00,,,0.00,weatherlink.com 1.10,2013-12-17 10:54:00,
2013-12-17 04:09:00,-999.0,-99.9,25.44,North,-999,-999.0,-999.0,-999,0.00,,,0.00,weatherlink.com 1.10,2013-12-17 11:09:00,
2013-12-17 04:24:00,-999.0,-99.9,25.44,North,-999,-999.0,-999.0,-999,0.00,,,0.00,weatherlink.com 1.10,2013-12-17 11:24:00,
2013-12-17 04:39:00,-999.0,-99.9,25.44,North,-999,-999.0,-999.0,-999,0.00,,,0.00,weatherlink.com 1.10,2013-12-17 11:39:00,
2013-12-17 04:54:00,-999.0,-99.9,25.44,North,-999,-999.0,-999.0,-999,0.00,,,0.00,weatherlink.com 1.10,2013-12-17 11:54:00,
2013-12-17 05:09:00,-999.0,-99.9,25.45,North,-999,-999.0,-999.0,-999,0.00,,,0.00,weatherlink.com 1.10,2013-12-17 12:09:00,
2013-12-17 05:24:00,-999.0,-99.9,25.46,North,-999,-999.0,-999.0,-999,0.00,,,0.00,weatherlink.com 1.10,2013-12-17 12:24:00,
2013-12-17 05:39:00,-999.0,-99.9,25.47,North,-999,-999.0,-999.0,-999,0.00,,,0.00,weatherlink.com 1.10,2013-12-17 12:39:00,
2013-12-17 05:54:00,-999.0,-99.9,25.47,North,-999,-999.0,-999.0,-999,0.00,,,0.00,weatherlink.com 1.10,2013-12-17 12:54:00,
2013-12-17 06:09:00,-999.0,-99.9,25.47,North,-999,-999.0,-999.0,-999,0.00,,,0.00,weatherlink.com 1.10,2013-12-17 13:09:00,
2013-12-17 06:24:00,-999.0,-99.9,25.47,North,-999,-999.0,-999.0,-999,0.00,,,0.00,weatherlink.com 1.10,2013-12-17 13:24:00,
2013-12-17 06:40:00,-999.0,-99.9,25.47,North,-999,-999.0,-999.0,-999,0.00,,,0.00,weatherlink.com 1.10,2013-12-17 13:40:00,
2013-12-17 06:55:00,-999.0,-99.9,25.47,North,-999,-999.0,-999.0,-999,0.00,,,0.00,weatherlink.com 1.10,2013-12-17 13:55:00,
2013-12-17 07:10:00,-999.0,-99.9,25.47,North,-999,-999.0,-999.0,-999,0.00,,,0.00,weatherlink.com 1.10,2013-12-17 14:10:00,
2013-12-17 07:25:00,-999.0,-99.9,25.47,North,-999,-999.0,-999.0,-999,0.00,,,0.00,weatherlink.com 1.10,2013-12-17 14:25:00,
2013-12-17 07:40:00,-999.0,-99.9,25.48,North,-999,-999.0,-999.0,-999,0.00,,,0.00,weatherlink.com 1.10,2013-12-17 14:40:00,
2013-12-17 07:55:00,32.1,17.0,25.48,SSW,212,1.0,3.0,54,0.00,,,0.00,weatherlink.com 1.10,2013-12-17 14:55:00,
2013-12-17 08:10:00,32.2,18.0,25.48,SW,226,0.0,1.0,55,0.00,,,0.00,weatherlink.com 1.10,2013-12-17 15:10:00,
2013-12-17 08:25:00,34.3,18.0,25.48,WSW,240,0.0,1.0,52,0.00,,,0.00,weatherlink.com 1.10,2013-12-17 15:25:00,
2013-12-17 08:40:00,37.4,19.0,25.48,West,266,4.0,6.0,47,0.00,,,0.00,weatherlink.com 1.10,2013-12-17 15:40:00,
2013-12-17 08:55:00,39.5,19.0,25.47,NW,308,3.0,6.0,44,0.00,,,0.00,weatherlink.com 1.10,2013-12-17 15:55:00,
2013-12-17 09:10:00,40.0,19.0,25.48,West,260,2.0,6.0,43,0.00,,,0.00,weatherlink.com 1.10,2013-12-17 16:10:00,
2013-12-17 09:25:00,42.9,19.0,25.47,West,271,4.0,6.0,39,0.00,,,0.00,weatherlink.com 1.10,2013-12-17 16:25:00,
2013-12-17 09:40:00,45.0,19.0,25.47,West,276,3.0,7.0,36,0.00,,,0.00,weatherlink.com 1.10,2013-12-17 16:40:00,
2013-12-17 09:55:00,46.7,19.0,25.47,SW,231,9.0,10.0,33,0.00,,,0.00,weatherlink.com 1.10,2013-12-17 16:55:00,
2013-12-17 10:10:00,47.7,18.0,25.47,West,264,7.0,12.0,31,0.00,,,0.00,weatherlink.com 1.10,2013-12-17 17:10:00,
2013-12-17 10:25:00,49.9,18.0,25.46,West,262,8.0,13.0,28,0.00,,,0.00,weatherlink.com 1.10,2013-12-17 17:25:00,
2013-12-17 10:40:00,51.8,16.0,25.45,WSW,257,9.0,13.0,24,0.00,,,0.00,weatherlink.com 1.10,2013-12-17 17:40:00,
2013-12-17 10:55:00,52.7,16.0,25.45,NW,310,6.0,15.0,23,0.00,,,0.00,weatherlink.com 1.10,2013-12-17 17:55:00,
2013-12-17 11:10:00,53.2,16.0,25.43,West,267,8.0,15.0,23,0.00,,,0.00,weatherlink.com 1.10,2013-12-17 18:10:00,
2013-12-17 11:25:00,53.1,16.0,25.43,West,274,9.0,18.0,23,0.00,,,0.00,weatherlink.com 1.10,2013-12-17 18:25:00,
2013-12-17 11:41:00,54.0,17.0,25.42,WSW,245,8.0,18.0,23,0.00,,,0.00,weatherlink.com 1.10,2013-12-17 18:41:00,
2013-12-17 11:56:00,55.5,17.0,25.41,West,274,8.0,16.0,22,0.00,,,0.00,weatherlink.com 1.10,2013-12-17 18:56:00,
2013-12-17 12:11:00,57.1,16.0,25.40,West,271,7.0,19.0,20,0.00,,,0.00,weatherlink.com 1.10,2013-12-17 19:11:00,
2013-12-17 12:26:00,57.9,16.0,25.39,West,269,11.0,22.0,19,0.00,,,0.00,weatherlink.com 1.10,2013-12-17 19:26:00,
2013-12-17 12:56:00,58.6,16.0,25.37,WNW,294,10.0,23.0,19,0.00,,,0.00,weatherlink.com 1.10,2013-12-17 19:56:00,
2013-12-17 13:11:00,58.8,16.0,25.36,West,270,19.0,20.0,19,0.00,,,0.00,weatherlink.com 1.10,2013-12-17 20:11:00,
2013-12-17 13:26:00,59.2,17.0,25.36,WSW,256,12.0,17.0,19,0.00,,,0.00,weatherlink.com 1.10,2013-12-17 20:26:00,
2013-12-17 13:41:00,59.7,17.0,25.35,WSW,238,10.0,15.0,19,0.00,,,0.00,weatherlink.com 1.10,2013-12-17 20:41:00,
2013-12-17 13:56:00,60.2,18.0,25.34,West,262,10.0,15.0,19,0.00,,,0.00,weatherlink.com 1.10,2013-12-17 20:56:00,
2013-12-17 14:11:00,61.0,17.0,25.34,WSW,256,7.0,14.0,18,0.00,,,0.00,weatherlink.com 1.10,2013-12-17 21:11:00,
2013-12-17 14:26:00,60.3,18.0,25.34,WNW,288,15.0,15.0,19,0.00,,,0.00,weatherlink.com 1.10,2013-12-17 21:26:00,
2013-12-17 14:41:00,60.3,16.0,25.33,WNW,296,13.0,14.0,18,0.00,,,0.00,weatherlink.com 1.10,2013-12-17 21:41:00,
2013-12-17 14:56:00,60.5,18.0,25.32,WNW,283,6.0,13.0,19,0.00,,,0.00,weatherlink.com 1.10,2013-12-17 21:56:00,
2013-12-17 15:11:00,60.5,18.0,25.32,WSW,245,10.0,13.0,19,0.00,,,0.00,weatherlink.com 1.10,2013-12-17 22:11:00,
2013-12-17 15:26:00,59.5,18.0,25.33,WSW,252,7.0,11.0,20,0.00,,,0.00,weatherlink.com 1.10,2013-12-17 22:26:00,
2013-12-17 15:41:00,57.2,18.0,25.32,SW,214,4.0,13.0,22,0.00,,,0.00,weatherlink.com 1.10,2013-12-17 22:41:00,
2013-12-17 15:56:00,55.7,18.0,25.32,SW,221,11.0,11.0,23,0.00,,,0.00,weatherlink.com 1.10,2013-12-17 22:56:00,
2013-12-17 16:11:00,54.0,18.0,25.32,WSW,252,6.0,10.0,24,0.00,,,0.00,weatherlink.com 1.10,2013-12-17 23:11:00,
2013-12-17 16:26:00,51.4,18.0,25.31,SW,215,7.0,12.0,27,0.00,,,0.00,weatherlink.com 1.10,2013-12-17 23:26:00,
2013-12-17 16:41:00,49.9,18.0,25.31,SW,222,6.0,11.0,28,0.00,,,0.00,weatherlink.com 1.10,2013-12-17 23:41:00,
2013-12-17 16:56:00,48.3,17.0,25.30,SW,229,10.0,13.0,29,0.00,,,0.00,weatherlink.com 1.10,2013-12-17 23:56:00,
2013-12-17 17:11:00,47.1,16.0,25.31,WSW,243,8.0,15.0,29,0.00,,,0.00,weatherlink.com 1.10,2013-12-18 00:11:00,
2013-12-17 17:26:00,46.9,17.0,25.30,SW,236,6.0,13.0,30,0.00,,,0.00,weatherlink.com 1.10,2013-12-18 00:26:00,
2013-12-17 17:41:00,44.9,17.0,25.30,West,269,4.0,13.0,33,0.00,,,0.00,weatherlink.com 1.10,2013-12-18 00:41:00,
2013-12-17 17:56:00,43.9,18.0,25.30,WSW,247,7.0,9.0,35,0.00,,,0.00,weatherlink.com 1.10,2013-12-18 00:56:00,
2013-12-17 18:11:00,43.3,18.0,25.30,West,269,7.0,11.0,36,0.00,,,0.00,weatherlink.com 1.10,2013-12-18 01:11:00,
2013-12-17 18:26:00,42.6,18.0,25.30,WSW,254,6.0,8.0,37,0.00,,,0.00,weatherlink.com 1.10,2013-12-18 01:26:00,
2013-12-17 18:41:00,41.6,18.0,25.29,West,274,4.0,7.0,39,0.00,,,0.00,weatherlink.com 1.10,2013-12-18 01:41:00,
2013-12-17 18:56:00,40.7,19.0,25.29,WNW,300,6.0,8.0,41,0.00,,,0.00,weatherlink.com 1.10,2013-12-18 01:56:00,
2013-12-17 19:11:00,40.4,19.0,25.28,WSW,246,6.0,9.0,42,0.00,,,0.00,weatherlink.com 1.10,2013-12-18 02:11:00,
2013-12-17 19:26:00,38.9,19.0,25.28,West,274,0.0,5.0,44,0.00,,,0.00,weatherlink.com 1.10,2013-12-18 02:26:00,
2013-12-17 19:42:00,36.5,19.0,25.28,WNW,289,2.0,5.0,50,0.00,,,0.00,weatherlink.com 1.10,2013-12-18 02:42:00,
2013-12-17 19:57:00,37.2,19.0,25.27,West,273,0.0,6.0,49,0.00,,,0.00,weatherlink.com 1.10,2013-12-18 02:57:00,
2013-12-17 20:12:00,36.3,20.0,25.26,West,260,3.0,6.0,52,0.00,,,0.00,weatherlink.com 1.10,2013-12-18 03:12:00,
2013-12-17 20:27:00,38.5,19.0,25.26,WNW,291,3.0,7.0,46,0.00,,,0.00,weatherlink.com 1.10,2013-12-18 03:27:00,
2013-12-17 20:42:00,36.9,19.0,25.25,WSW,248,4.0,9.0,49,0.00,,,0.00,weatherlink.com 1.10,2013-12-18 03:42:00,
2013-12-17 20:57:00,39.7,19.0,25.25,NNW,337,2.0,5.0,44,0.00,,,0.00,weatherlink.com 1.10,2013-12-18 03:57:00,
2013-12-17 21:12:00,34.9,19.0,25.25,West,270,0.0,1.0,52,0.00,,,0.00,weatherlink.com 1.10,2013-12-18 04:12:00,
2013-12-17 21:27:00,35.8,19.0,25.25,West,264,3.0,4.0,51,0.00,,,0.00,weatherlink.com 1.10,2013-12-18 04:27:00,
2013-12-17 21:42:00,38.9,19.0,25.24,West,266,3.0,6.0,44,0.00,,,0.00,weatherlink.com 1.10,2013-12-18 04:42:00,
2013-12-17 21:57:00,42.3,18.0,25.24,West,262,8.0,9.0,37,0.00,,,0.00,weatherlink.com 1.10,2013-12-18 04:57:00,
2013-12-17 22:12:00,45.8,17.0,25.24,WSW,257,9.0,12.0,32,0.00,,,0.00,weatherlink.com 1.10,2013-12-18 05:12:00,
2013-12-17 22:27:00,47.8,17.0,25.24,West,262,6.0,11.0,29,0.00,,,0.00,weatherlink.com 1.10,2013-12-18 05:27:00,
2013-12-17 22:42:00,47.4,16.0,25.23,WSW,252,7.0,12.0,29,0.00,,,0.00,weatherlink.com 1.10,2013-12-18 05:42:00,
2013-12-17 22:57:00,47.8,17.0,25.22,West,280,8.0,12.0,29,0.00,,,0.00,weatherlink.com 1.10,2013-12-18 05:57:00,
2013-12-17 23:12:00,46.9,17.0,25.21,WSW,250,10.0,13.0,30,0.00,,,0.00,weatherlink.com 1.10,2013-12-18 06:12:00,
2013-12-17 23:27:00,45.6,17.0,25.21,West,274,4.0,13.0,32,0.00,,,0.00,weatherlink.com 1.10,2013-12-18 06:27:00,
2013-12-17 23:42:00,48.7,17.0,25.20,WNW,282,10.0,21.0,28,0.00,,,0.00,weatherlink.com 1.10,2013-12-18 06:42:00,
2013-12-17 23:57:00,51.2,16.0,25.19,West,280,15.0,19.0,25,0.00,,,0.00,weatherlink.com 1.10,2013-12-18 06:57:00,